createdAt,value
2022-12-19T00:00:28.733Z,48.79
2022-12-19T00:02:56.506Z,48.78
2022-12-19T00:05:24.813Z,48.94
2022-12-19T00:07:53.959Z,49.16
2022-12-19T00:10:21.795Z,49.11
2022-12-19T00:12:49.588Z,49.44
2022-12-19T00:15:17.898Z,49.67
2022-12-19T00:17:45.645Z,50.03
2022-12-19T00:20:13.534Z,49.92
2022-12-19T00:22:44.648Z,50.15
2022-12-19T00:25:12.394Z,50.39
2022-12-19T00:27:40.802Z,50.55
2022-12-19T00:30:09.320Z,50.43
2022-12-19T00:32:38.307Z,50.47
2022-12-19T00:35:07.402Z,51.11
2022-12-19T00:37:35.327Z,50.69
2022-12-19T00:40:07.751Z,50.40
2022-12-19T00:42:35.598Z,50.93
2022-12-19T00:45:03.764Z,50.63
2022-12-19T00:47:31.596Z,50.97
2022-12-19T00:50:00.693Z,50.75
2022-12-19T00:52:28.394Z,50.69
2022-12-19T00:54:58.223Z,50.90
2022-12-19T00:57:26.188Z,51.29
2022-12-19T00:59:54.469Z,51.11
2022-12-19T01:02:22.694Z,51.20
2022-12-19T01:04:51.042Z,51.14
2022-12-19T01:07:18.733Z,52.14
2022-12-19T01:09:46.443Z,52.56
2022-12-19T01:12:34.028Z,52.54
2022-12-19T01:15:05.288Z,51.83
2022-12-19T01:17:43.729Z,51.38
2022-12-19T01:20:28.937Z,51.64
2022-12-19T01:22:59.949Z,51.47
2022-12-19T01:25:28.603Z,51.23
2022-12-19T01:27:57.238Z,51.13
2022-12-19T01:30:25.549Z,50.99
2022-12-19T01:32:53.835Z,51.19
2022-12-19T01:35:22.332Z,51.27
2022-12-19T01:37:52.142Z,51.07
2022-12-19T01:40:24.485Z,51.40
2022-12-19T01:42:52.295Z,51.03
2022-12-19T01:45:31.992Z,51.26
2022-12-19T01:48:12.861Z,51.40
2022-12-19T01:50:56.030Z,51.48
2022-12-19T01:53:48.337Z,51.50
2022-12-19T01:56:24.213Z,51.36
2022-12-19T01:59:06.157Z,51.44
2022-12-19T02:01:50.949Z,51.26
2022-12-19T02:04:29.402Z,51.27
2022-12-19T02:07:15.192Z,51.88
2022-12-19T02:09:46.941Z,51.20
2022-12-19T02:12:15.178Z,51.32
2022-12-19T02:14:43.641Z,51.76
2022-12-19T02:17:17.018Z,51.67
2022-12-19T02:19:54.771Z,51.79
2022-12-19T02:22:44.322Z,51.73
2022-12-19T02:25:21.664Z,51.50
2022-12-19T02:28:16.620Z,51.38
2022-12-19T02:31:17.717Z,51.65
2022-12-19T02:33:56.654Z,51.61
2022-12-19T02:36:50.563Z,51.68
2022-12-19T02:39:30.524Z,51.90
2022-12-19T02:42:05.907Z,51.82
2022-12-19T02:44:39.937Z,51.96
2022-12-19T02:47:09.031Z,51.68
2022-12-19T02:49:39.028Z,51.42
2022-12-19T02:52:12.604Z,51.51
2022-12-19T02:54:42.329Z,51.72
2022-12-19T02:57:39.775Z,51.64
2022-12-19T03:00:16.304Z,51.48
2022-12-19T03:03:00.848Z,51.59
2022-12-19T03:05:35.770Z,51.51
2022-12-19T03:08:30.915Z,51.56
2022-12-19T03:11:10.509Z,51.82
2022-12-19T03:13:46.377Z,51.66
2022-12-19T03:16:15.059Z,51.64
2022-12-19T03:18:44.300Z,51.77
2022-12-19T03:21:21.504Z,51.58
2022-12-19T03:23:50.943Z,51.53
2022-12-19T03:26:24.999Z,51.72
2022-12-19T03:29:20.120Z,51.88
2022-12-19T03:31:48.164Z,51.69
2022-12-19T03:34:23.983Z,51.74
2022-12-19T03:36:57.424Z,51.40
2022-12-19T03:39:29.401Z,51.59
2022-12-19T03:42:18.212Z,51.63
2022-12-19T03:44:48.530Z,51.50
2022-12-19T03:47:24.408Z,51.58
2022-12-19T03:49:53.052Z,52.00
2022-12-19T03:52:29.731Z,51.95
2022-12-19T03:55:08.088Z,51.87
2022-12-19T03:57:44.261Z,51.85
2022-12-19T04:00:16.263Z,51.63
2022-12-19T04:02:48.082Z,51.77
2022-12-19T04:05:21.093Z,51.45
2022-12-19T04:07:51.701Z,51.40
2022-12-19T04:10:24.937Z,51.68
2022-12-19T04:13:27.699Z,51.75
2022-12-19T04:15:58.373Z,51.51
2022-12-19T04:18:26.564Z,51.50
2022-12-19T04:21:01.705Z,51.48
2022-12-19T04:23:39.583Z,51.81
2022-12-19T04:26:09.758Z,51.82
2022-12-19T04:28:58.872Z,51.94
2022-12-19T04:31:26.969Z,51.85
2022-12-19T04:33:55.090Z,51.62
2022-12-19T04:36:23.092Z,51.60
2022-12-19T04:38:50.748Z,51.31
2022-12-19T04:41:18.545Z,51.25
2022-12-19T04:43:46.342Z,51.41
2022-12-19T04:46:14.284Z,51.58
2022-12-19T04:48:42.090Z,51.62
2022-12-19T04:51:10.026Z,51.59
2022-12-19T04:53:37.851Z,51.78
2022-12-19T04:56:07.176Z,51.67
2022-12-19T04:58:34.935Z,51.63
2022-12-19T05:01:04.830Z,51.83
2022-12-19T05:03:33.423Z,51.93
2022-12-19T05:06:12.526Z,51.69
2022-12-19T05:08:43.148Z,51.75
2022-12-19T05:11:19.203Z,51.65
2022-12-19T05:13:47.849Z,51.96
2022-12-19T05:16:16.166Z,51.83
2022-12-19T05:18:44.453Z,51.84
2022-12-19T05:21:12.944Z,51.58
2022-12-19T05:23:40.781Z,51.51
2022-12-19T05:26:08.646Z,51.81
2022-12-19T05:28:36.699Z,51.64
2022-12-19T05:31:11.891Z,51.64
2022-12-19T05:33:41.975Z,51.45
2022-12-19T05:36:15.877Z,51.89
2022-12-19T05:38:43.837Z,52.00
2022-12-19T05:41:16.230Z,52.03
2022-12-19T05:43:45.970Z,52.13
2022-12-19T05:46:13.816Z,52.07
2022-12-19T05:48:41.852Z,51.58
2022-12-19T05:51:09.856Z,51.78
2022-12-19T05:53:39.220Z,51.90
2022-12-19T05:56:08.783Z,51.70
2022-12-19T05:58:41.077Z,52.20
2022-12-19T06:01:33.803Z,52.12
2022-12-19T06:04:01.674Z,51.84
2022-12-19T06:06:29.532Z,51.72
2022-12-19T06:08:58.600Z,51.77
2022-12-19T06:11:27.842Z,51.97
2022-12-19T06:13:55.616Z,52.18
2022-12-19T06:16:24.316Z,52.31
2022-12-19T06:18:54.534Z,52.23
2022-12-19T06:21:23.990Z,52.22
2022-12-19T06:23:51.932Z,51.82
2022-12-19T06:26:21.218Z,51.99
2022-12-19T06:28:50.562Z,52.54
2022-12-19T06:31:19.442Z,52.84
2022-12-19T06:33:47.106Z,52.58
2022-12-19T06:36:17.190Z,52.49
2022-12-19T06:38:45.143Z,52.39
2022-12-19T06:41:31.879Z,52.32
2022-12-19T06:44:00.959Z,52.61
2022-12-19T06:46:29.221Z,52.36
2022-12-19T06:48:57.287Z,51.79
2022-12-19T06:51:25.026Z,51.60
2022-12-19T06:53:53.856Z,51.30
2022-12-19T06:56:21.743Z,51.43
2022-12-19T06:58:50.497Z,51.49
2022-12-19T07:01:35.795Z,51.10
2022-12-19T07:04:04.116Z,51.51
2022-12-19T07:06:32.043Z,51.13
2022-12-19T07:09:00.317Z,51.04
2022-12-19T07:11:28.067Z,51.46
2022-12-19T07:13:55.730Z,51.12
2022-12-19T07:16:25.949Z,50.91
2022-12-19T07:18:54.139Z,50.93
2022-12-19T07:21:22.726Z,50.60
2022-12-19T07:23:50.868Z,50.58
2022-12-19T07:26:18.784Z,50.53
2022-12-19T07:28:46.594Z,50.38
2022-12-19T07:31:14.702Z,50.76
2022-12-19T07:33:43.731Z,51.03
2022-12-19T07:36:11.603Z,51.55
2022-12-19T07:38:39.259Z,51.27
2022-12-19T07:41:07.085Z,50.99
2022-12-19T07:43:34.947Z,50.97
2022-12-19T07:46:03.162Z,51.08
2022-12-19T07:48:31.559Z,51.13
2022-12-19T07:51:00.312Z,51.15
2022-12-19T07:53:31.521Z,51.13
2022-12-19T07:55:59.459Z,50.91
2022-12-19T07:58:27.086Z,51.00
2022-12-19T08:01:01.564Z,50.94
2022-12-19T08:03:32.949Z,51.00
2022-12-19T08:06:06.403Z,50.84
2022-12-19T08:08:35.513Z,51.15
2022-12-19T08:11:14.949Z,50.77
2022-12-19T08:13:46.396Z,51.36
2022-12-19T08:16:15.256Z,51.67
2022-12-19T08:18:43.177Z,51.80
2022-12-19T08:21:11.738Z,51.90
2022-12-19T08:23:40.121Z,52.88
2022-12-19T08:26:14.576Z,55.04
2022-12-19T08:28:43.767Z,52.30
2022-12-19T08:31:17.465Z,52.26
2022-12-19T08:33:46.470Z,52.09
2022-12-19T08:36:16.559Z,51.47
2022-12-19T08:38:44.571Z,51.29
2022-12-19T08:41:12.768Z,51.33
2022-12-19T08:43:41.151Z,51.04
2022-12-19T08:46:09.538Z,50.87
2022-12-19T08:48:37.392Z,50.58
2022-12-19T08:51:08.065Z,50.64
2022-12-19T08:53:38.523Z,50.75
2022-12-19T08:56:11.673Z,51.28
2022-12-19T08:58:40.091Z,50.97
2022-12-19T09:01:11.520Z,51.01
2022-12-19T09:03:49.634Z,50.96
2022-12-19T09:06:27.903Z,51.15
2022-12-19T09:09:00.467Z,50.87
2022-12-19T09:11:29.097Z,50.75
2022-12-19T09:13:58.148Z,50.70
2022-12-19T09:16:28.240Z,50.86
2022-12-19T09:18:58.791Z,50.62
2022-12-19T09:21:31.687Z,50.92
2022-12-19T09:24:07.407Z,50.79
2022-12-19T09:26:38.948Z,51.77
2022-12-19T09:29:12.628Z,50.56
2022-12-19T09:31:55.533Z,52.74
2022-12-19T09:34:37.197Z,52.04
2022-12-19T09:37:16.375Z,51.04
2022-12-19T09:39:46.966Z,53.60
2022-12-19T09:42:41.128Z,54.08
2022-12-19T09:45:32.174Z,52.02
2022-12-19T09:48:02.141Z,51.35
2022-12-19T09:50:33.399Z,50.46
2022-12-19T09:53:11.770Z,50.76
2022-12-19T09:55:42.009Z,50.94
2022-12-19T09:58:19.861Z,50.37
2022-12-19T10:01:05.119Z,50.83
2022-12-19T10:03:40.339Z,50.14
2022-12-19T10:07:11.419Z,50.70
2022-12-19T10:10:52.904Z,50.59
2022-12-19T10:12:43.779Z,51.02
2022-12-19T10:15:26.151Z,50.97
2022-12-19T10:18:12.960Z,50.29
2022-12-19T10:20:45.868Z,49.84
2022-12-19T10:23:26.219Z,49.72
2022-12-19T10:26:07.821Z,49.92
2022-12-19T10:29:08.505Z,50.53
2022-12-19T10:31:39.122Z,50.43
2022-12-19T10:34:33.287Z,50.54
2022-12-19T10:37:35.086Z,50.14
2022-12-19T10:40:27.281Z,50.71
2022-12-19T10:43:32.888Z,51.04
2022-12-19T10:46:12.285Z,50.94
2022-12-19T10:48:41.815Z,51.15
2022-12-19T10:51:25.325Z,51.09
2022-12-19T10:53:56.722Z,51.16
2022-12-19T10:56:33.158Z,51.44
2022-12-19T10:59:16.336Z,51.54
2022-12-19T11:01:45.030Z,51.41
2022-12-19T11:04:33.848Z,52.16
2022-12-19T11:07:05.330Z,51.57
2022-12-19T11:09:46.076Z,51.64
2022-12-19T11:16:22.137Z,51.54
2022-12-19T11:20:45.545Z,51.41
2022-12-19T11:26:47.081Z,51.39
2022-12-19T11:29:19.608Z,51.84
2022-12-19T11:29:24.898Z,51.22
2022-12-19T11:30:45.727Z,51.16
2022-12-19T11:32:43.599Z,51.07
2022-12-19T11:35:36.584Z,51.05
2022-12-19T11:38:08.521Z,50.93
2022-12-19T11:40:49.850Z,50.71
2022-12-19T11:43:55.594Z,51.23
2022-12-19T11:46:27.255Z,50.94
2022-12-19T11:49:31.445Z,50.95
2022-12-19T11:55:28.370Z,51.31
2022-12-19T11:57:56.208Z,51.11
2022-12-19T12:00:24.971Z,51.17
2022-12-19T12:03:20.727Z,51.05
2022-12-19T12:05:50.152Z,50.96
2022-12-19T12:11:35.023Z,50.89
2022-12-19T12:18:22.127Z,51.50
2022-12-19T12:20:21.893Z,51.61
2022-12-19T12:31:21.495Z,51.28
2022-12-19T12:31:40.036Z,51.43
2022-12-19T12:31:46.191Z,51.16
2022-12-19T12:31:56.046Z,51.71
2022-12-19T12:32:06.316Z,51.65
2022-12-19T12:35:31.530Z,51.45
2022-12-19T12:38:13.772Z,51.35
2022-12-19T12:40:23.867Z,51.23
2022-12-19T12:43:07.201Z,51.39
2022-12-19T12:45:38.237Z,51.77
2022-12-19T12:48:44.448Z,51.63
2022-12-19T12:51:13.298Z,51.16
2022-12-19T12:53:47.031Z,51.16
2022-12-19T12:56:17.860Z,51.46
2022-12-19T12:59:06.091Z,51.23
2022-12-19T13:01:40.534Z,51.02
2022-12-19T13:04:11.549Z,50.98
2022-12-19T13:06:42.112Z,51.46
2022-12-19T13:09:09.793Z,51.40
2022-12-19T13:12:06.200Z,51.35
2022-12-19T13:14:39.843Z,50.92
2022-12-19T13:17:19.728Z,52.70
2022-12-19T13:20:17.903Z,52.42
2022-12-19T13:23:03.882Z,51.46
2022-12-19T13:25:34.905Z,51.39
2022-12-19T13:28:02.773Z,51.47
2022-12-19T13:30:46.226Z,51.15
2022-12-19T13:33:20.269Z,51.05
2022-12-19T13:39:23.021Z,51.00
2022-12-19T13:40:01.585Z,51.36
2022-12-19T13:42:01.287Z,51.86
2022-12-19T13:44:42.364Z,51.60
2022-12-19T13:47:16.607Z,50.91
2022-12-19T13:49:48.457Z,50.56
2022-12-19T13:52:18.196Z,49.90
2022-12-19T13:54:52.100Z,50.51
2022-12-19T13:57:28.782Z,51.38
2022-12-19T14:00:07.340Z,51.04
2022-12-19T14:02:46.933Z,50.52
2022-12-19T14:06:16.875Z,50.13
2022-12-19T14:08:25.726Z,50.38
2022-12-19T14:11:40.147Z,50.10
2022-12-19T14:14:19.093Z,49.98
2022-12-19T14:16:50.670Z,50.16
2022-12-19T14:19:19.858Z,49.68
2022-12-19T14:22:09.946Z,49.46
2022-12-19T14:24:35.128Z,49.46
2022-12-19T14:28:21.385Z,49.51
2022-12-19T14:30:30.926Z,49.29
2022-12-19T14:33:45.355Z,49.44
2022-12-19T14:36:10.648Z,49.68
2022-12-19T14:39:27.356Z,49.59
2022-12-19T14:41:47.954Z,49.24
2022-12-19T14:53:52.111Z,49.17
2022-12-19T14:53:52.111Z,48.90
2022-12-19T14:54:05.507Z,48.46
2022-12-19T14:54:23.893Z,48.53
2022-12-19T14:56:16.162Z,48.61
2022-12-19T14:58:55.710Z,48.58
2022-12-19T15:01:27.197Z,48.35
2022-12-19T15:04:53.319Z,48.86
2022-12-19T15:07:07.542Z,49.12
2022-12-19T15:11:06.714Z,48.92
2022-12-19T15:14:51.841Z,49.35
2022-12-19T15:16:29.643Z,49.51
2022-12-19T15:18:59.184Z,49.84
2022-12-19T15:21:28.175Z,49.30
2022-12-19T15:23:55.905Z,49.56
2022-12-19T15:26:33.696Z,49.31
2022-12-19T15:29:02.662Z,49.63
2022-12-19T15:31:39.396Z,49.69
2022-12-19T15:34:40.164Z,50.16
2022-12-19T15:37:11.435Z,50.23
2022-12-19T15:39:40.883Z,50.45
2022-12-19T15:42:24.999Z,50.21
2022-12-19T15:44:55.943Z,50.49
2022-12-19T15:47:35.419Z,50.73
2022-12-19T15:50:16.833Z,50.70
2022-12-19T15:52:45.031Z,50.67
2022-12-19T15:55:19.158Z,51.04
2022-12-19T15:57:49.796Z,51.19
2022-12-19T16:00:23.849Z,50.87
2022-12-19T16:03:23.238Z,51.29
2022-12-19T16:05:42.482Z,51.39
2022-12-19T16:08:20.079Z,51.67
2022-12-19T16:11:01.046Z,52.19
2022-12-19T16:13:34.720Z,54.27
2022-12-19T16:16:09.266Z,53.78
2022-12-19T16:18:44.731Z,53.35
2022-12-19T16:21:26.059Z,52.62
2022-12-19T16:23:59.253Z,53.17
2022-12-19T16:26:35.981Z,52.98
2022-12-19T16:29:04.460Z,52.34
2022-12-19T16:31:33.013Z,52.38
2022-12-19T16:34:02.656Z,52.78
2022-12-19T16:36:30.487Z,53.39
2022-12-19T16:38:58.201Z,53.34
2022-12-19T16:41:26.212Z,53.11
2022-12-19T16:43:54.070Z,53.23
2022-12-19T16:46:26.333Z,53.07
2022-12-19T16:48:54.195Z,53.26
2022-12-19T16:51:24.825Z,53.39
2022-12-19T16:53:55.057Z,53.67
2022-12-19T16:56:29.973Z,53.97
2022-12-19T16:59:01.362Z,53.67
2022-12-19T17:01:30.239Z,54.33
2022-12-19T17:03:58.097Z,54.09
2022-12-19T17:06:26.843Z,54.11
2022-12-19T17:08:54.764Z,54.30
2022-12-19T17:11:26.241Z,54.47
2022-12-19T17:14:01.705Z,54.14
2022-12-19T17:16:31.295Z,54.95
2022-12-19T17:18:59.749Z,54.83
2022-12-19T17:21:27.573Z,54.84
2022-12-19T17:23:55.496Z,54.63
2022-12-19T17:26:23.258Z,55.13
2022-12-19T17:28:51.054Z,54.72
2022-12-19T17:31:30.301Z,54.59
2022-12-19T17:33:58.674Z,54.80
2022-12-19T17:36:34.662Z,54.79
2022-12-19T17:39:03.175Z,54.64
2022-12-19T17:41:31.316Z,54.93
2022-12-19T17:43:59.149Z,55.21
2022-12-19T17:46:27.136Z,55.60
2022-12-19T17:48:55.261Z,55.32
2022-12-19T17:51:24.630Z,55.09
2022-12-19T17:53:52.435Z,55.65
2022-12-19T17:56:21.039Z,55.91
2022-12-19T17:58:49.589Z,55.41
2022-12-19T18:01:23.251Z,55.09
2022-12-19T18:03:54.345Z,55.36
2022-12-19T18:06:22.684Z,55.42
2022-12-19T18:08:50.564Z,55.55
2022-12-19T18:11:22.282Z,55.29
2022-12-19T18:13:52.208Z,54.92
2022-12-19T18:16:23.711Z,55.11
2022-12-19T18:18:51.545Z,55.90
2022-12-19T18:21:23.385Z,55.66
2022-12-19T18:23:51.514Z,56.14
2022-12-19T18:26:19.354Z,55.74
2022-12-19T18:28:47.052Z,55.98
2022-12-19T18:31:32.993Z,55.73
2022-12-19T18:34:07.409Z,55.98
2022-12-19T18:36:43.456Z,57.38
2022-12-19T18:39:29.290Z,56.16
2022-12-19T18:41:57.138Z,55.76
2022-12-19T18:44:25.275Z,55.80
2022-12-19T18:46:53.672Z,56.10
2022-12-19T18:49:23.516Z,56.09
2022-12-19T18:51:51.386Z,55.38
2022-12-19T18:54:22.006Z,55.72
2022-12-19T18:56:50.159Z,56.43
2022-12-19T18:59:17.954Z,56.33
2022-12-19T19:01:47.403Z,56.19
2022-12-19T19:04:18.272Z,55.93
2022-12-19T19:06:51.458Z,56.29
2022-12-19T19:09:20.665Z,56.15
2022-12-19T19:12:06.267Z,56.00
2022-12-19T19:14:34.133Z,55.84
2022-12-19T19:17:03.473Z,55.56
2022-12-19T19:19:31.725Z,55.47
2022-12-19T19:21:59.496Z,55.89
2022-12-19T19:24:27.272Z,55.83
2022-12-19T19:26:55.144Z,55.51
2022-12-19T19:29:22.996Z,56.31
2022-12-19T19:31:51.902Z,56.68
2022-12-19T19:34:25.699Z,57.02
2022-12-19T19:36:57.408Z,55.72
2022-12-19T19:39:25.324Z,55.46
2022-12-19T19:41:56.490Z,55.35
2022-12-19T19:44:24.275Z,54.64
2022-12-19T19:46:52.534Z,54.94
2022-12-19T19:49:21.217Z,57.57
2022-12-19T19:51:49.715Z,56.62
2022-12-19T19:54:17.839Z,56.60
2022-12-19T19:56:45.473Z,56.62
2022-12-19T19:59:13.716Z,56.72
2022-12-19T20:01:42.787Z,55.99
2022-12-19T20:04:10.793Z,56.17
2022-12-19T20:06:38.729Z,56.05
2022-12-19T20:09:06.703Z,55.33
2022-12-19T20:11:34.820Z,55.09
2022-12-19T20:14:02.615Z,55.42
2022-12-19T20:16:30.798Z,55.92
2022-12-19T20:18:58.705Z,56.09
2022-12-19T20:21:26.732Z,56.41
2022-12-19T20:23:54.681Z,56.15
2022-12-19T20:26:22.693Z,55.54
2022-12-19T20:28:51.474Z,55.37
2022-12-19T20:31:21.247Z,55.56
2022-12-19T20:33:49.894Z,56.52
2022-12-19T20:36:18.606Z,55.66
2022-12-19T20:38:47.306Z,55.56
2022-12-19T20:41:17.477Z,55.43
2022-12-19T20:43:45.569Z,55.80
2022-12-19T20:46:16.842Z,55.88
2022-12-19T20:48:45.460Z,56.17
2022-12-19T20:51:18.022Z,56.91
2022-12-19T20:53:46.871Z,56.15
2022-12-19T20:56:17.577Z,55.19
2022-12-19T20:58:46.011Z,54.69
2022-12-19T21:01:18.149Z,54.51
2022-12-19T21:03:46.871Z,54.25
2022-12-19T21:06:19.272Z,54.80
2022-12-19T21:08:47.615Z,54.07
2022-12-19T21:11:15.999Z,54.13
2022-12-19T21:13:44.220Z,54.24
2022-12-19T21:16:15.697Z,53.86
2022-12-19T21:18:46.157Z,54.06
2022-12-19T21:21:19.000Z,53.66
2022-12-19T21:23:47.347Z,54.14
2022-12-19T21:26:15.528Z,53.83
2022-12-19T21:28:43.652Z,54.01
2022-12-19T21:31:21.245Z,54.05
2022-12-19T21:33:51.363Z,53.59
2022-12-19T21:36:21.895Z,53.65
2022-12-19T21:38:52.068Z,53.63
2022-12-19T21:41:20.395Z,53.71
2022-12-19T21:43:52.550Z,53.72
2022-12-19T21:46:23.901Z,53.38
2022-12-19T21:48:53.589Z,53.52
2022-12-19T21:51:24.031Z,53.64
2022-12-19T21:53:57.142Z,53.48
2022-12-19T21:56:36.404Z,53.33
2022-12-19T21:59:15.612Z,53.57
2022-12-19T22:01:45.327Z,53.77
2022-12-19T22:04:24.496Z,53.65
2022-12-19T22:06:52.381Z,53.69
2022-12-19T22:09:23.269Z,53.65
2022-12-19T22:11:51.425Z,53.70
2022-12-19T22:14:19.389Z,53.93
2022-12-19T22:16:47.261Z,53.50
2022-12-19T22:19:18.587Z,53.49
2022-12-19T22:21:47.534Z,53.23
2022-12-19T22:24:17.192Z,53.36
2022-12-19T22:26:45.277Z,52.92
2022-12-19T22:29:16.291Z,54.42
2022-12-19T22:31:45.402Z,54.70
2022-12-19T22:34:18.848Z,54.28
2022-12-19T22:36:47.746Z,54.04
2022-12-19T22:39:18.766Z,53.60
2022-12-19T22:41:46.796Z,53.33
2022-12-19T22:44:23.418Z,53.33
2022-12-19T22:46:52.712Z,52.88
2022-12-19T22:49:20.691Z,53.04
2022-12-19T22:51:48.568Z,53.20
2022-12-19T22:54:16.353Z,53.31
2022-12-19T22:56:44.303Z,53.43
2022-12-19T22:59:12.821Z,53.76
2022-12-19T23:01:44.580Z,53.58
2022-12-19T23:04:15.264Z,53.75
2022-12-19T23:06:44.255Z,53.54
2022-12-19T23:09:16.319Z,53.79
2022-12-19T23:11:47.452Z,53.59
2022-12-19T23:14:17.169Z,53.75
2022-12-19T23:16:45.537Z,53.83
2022-12-19T23:19:15.406Z,53.54
2022-12-19T23:21:43.319Z,53.36
2022-12-19T23:24:12.615Z,53.59
2022-12-19T23:26:41.400Z,53.50
2022-12-19T23:29:12.227Z,53.30
2022-12-19T23:31:42.655Z,53.08
2022-12-19T23:34:11.039Z,53.64
2022-12-19T23:37:09.730Z,53.56
2022-12-19T23:39:26.657Z,53.11
2022-12-19T23:41:54.329Z,53.05
2022-12-19T23:44:22.120Z,53.10
2022-12-19T23:46:49.889Z,52.99
2022-12-19T23:49:17.631Z,52.91
2022-12-19T23:51:45.539Z,52.76
2022-12-19T23:54:13.414Z,53.00
2022-12-19T23:56:41.214Z,53.15
2022-12-19T23:59:08.947Z,53.25
